sensor_id;sensor_type;location;lat;lon;timestamp;temperature;humidity
12015;DHT22;6066;48.138;16.402;2023-03-14T00:00:22;7.80;99.90
12015;DHT22;6066;48.138;16.402;2023-03-14T00:02:51;7.80;99.90
12015;DHT22;6066;48.138;16.402;2023-03-14T00:05:18;7.70;99.90
12015;DHT22;6066;48.138;16.402;2023-03-14T00:07:46;7.70;99.90
12015;DHT22;6066;48.138;16.402;2023-03-14T00:10:13;7.70;99.90
12015;DHT22;6066;48.138;16.402;2023-03-14T00:12:40;7.70;99.90
12015;DHT22;6066;48.138;16.402;2023-03-14T00:15:07;7.70;99.90
12015;DHT22;6066;48.138;16.402;2023-03-14T00:17:35;7.70;99.90
12015;DHT22;6066;48.138;16.402;2023-03-14T00:20:02;7.70;99.90
12015;DHT22;6066;48.138;16.402;2023-03-14T00:22:33;7.70;99.90
12015;DHT22;6066;48.138;16.402;2023-03-14T00:25:02;7.70;99.90
12015;DHT22;6066;48.138;16.402;2023-03-14T00:27:29;7.70;99.90
12015;DHT22;6066;48.138;16.402;2023-03-14T00:29:56;7.70;99.90
12015;DHT22;6066;48.138;16.402;2023-03-14T00:32:23;7.70;99.90
12015;DHT22;6066;48.138;16.402;2023-03-14T00:34:49;7.70;99.90
12015;DHT22;6066;48.138;16.402;2023-03-14T00:37:16;7.70;99.90
12015;DHT22;6066;48.138;16.402;2023-03-14T00:39:43;7.70;99.90
12015;DHT22;6066;48.138;16.402;2023-03-14T00:42:11;7.70;99.90
12015;DHT22;6066;48.138;16.402;2023-03-14T00:44:37;7.70;99.90
12015;DHT22;6066;48.138;16.402;2023-03-14T00:47:04;7.60;99.90
12015;DHT22;6066;48.138;16.402;2023-03-14T00:49:31;7.50;99.90
12015;DHT22;6066;48.138;16.402;2023-03-14T00:51:57;7.40;99.90
12015;DHT22;6066;48.138;16.402;2023-03-14T00:54:24;7.30;99.90
12015;DHT22;6066;48.138;16.402;2023-03-14T00:56:51;7.20;99.90
12015;DHT22;6066;48.138;16.402;2023-03-14T00:59:19;7.10;99.90
12015;DHT22;6066;48.138;16.402;2023-03-14T01:01:45;6.90;99.90
12015;DHT22;6066;48.138;16.402;2023-03-14T01:04:12;6.90;99.90
12015;DHT22;6066;48.138;16.402;2023-03-14T01:06:39;6.80;99.90
12015;DHT22;6066;48.138;16.402;2023-03-14T01:09:06;6.70;99.90
12015;DHT22;6066;48.138;16.402;2023-03-14T01:11:33;6.60;99.90
12015;DHT22;6066;48.138;16.402;2023-03-14T01:14:00;6.50;99.90
12015;DHT22;6066;48.138;16.402;2023-03-14T01:16:30;6.30;99.90
12015;DHT22;6066;48.138;16.402;2023-03-14T01:18:56;6.20;99.90
12015;DHT22;6066;48.138;16.402;2023-03-14T01:21:23;6.20;99.90
12015;DHT22;6066;48.138;16.402;2023-03-14T01:23:51;6.20;99.90
12015;DHT22;6066;48.138;16.402;2023-03-14T01:26:18;6.20;99.90
12015;DHT22;6066;48.138;16.402;2023-03-14T01:28:45;6.20;99.90
12015;DHT22;6066;48.138;16.402;2023-03-14T01:31:12;6.20;99.90
12015;DHT22;6066;48.138;16.402;2023-03-14T01:33:40;6.20;99.90
12015;DHT22;6066;48.138;16.402;2023-03-14T01:36:07;6.10;99.90
12015;DHT22;6066;48.138;16.402;2023-03-14T01:38:35;6.10;99.90
12015;DHT22;6066;48.138;16.402;2023-03-14T01:41:02;6.10;99.90
12015;DHT22;6066;48.138;16.402;2023-03-14T01:43:29;6.00;99.90
12015;DHT22;6066;48.138;16.402;2023-03-14T01:46:12;6.00;99.90
12015;DHT22;6066;48.138;16.402;2023-03-14T01:48:43;6.00;99.90
12015;DHT22;6066;48.138;16.402;2023-03-14T01:51:12;5.90;99.90
12015;DHT22;6066;48.138;16.402;2023-03-14T01:53:39;5.90;99.90
12015;DHT22;6066;48.138;16.402;2023-03-14T01:56:08;5.80;99.90
12015;DHT22;6066;48.138;16.402;2023-03-14T01:58:36;5.80;99.90
12015;DHT22;6066;48.138;16.402;2023-03-14T02:01:04;5.70;99.90
12015;DHT22;6066;48.138;16.402;2023-03-14T02:03:34;5.60;99.90
12015;DHT22;6066;48.138;16.402;2023-03-14T02:06:06;5.50;99.90
12015;DHT22;6066;48.138;16.402;2023-03-14T02:08:34;5.50;99.90
12015;DHT22;6066;48.138;16.402;2023-03-14T02:11:01;5.40;99.90
12015;DHT22;6066;48.138;16.402;2023-03-14T02:13:28;5.30;99.90
12015;DHT22;6066;48.138;16.402;2023-03-14T02:15:55;5.20;99.90
12015;DHT22;6066;48.138;16.402;2023-03-14T02:18:21;5.30;99.90
12015;DHT22;6066;48.138;16.402;2023-03-14T02:20:48;5.30;99.90
12015;DHT22;6066;48.138;16.402;2023-03-14T02:23:20;5.30;99.90
12015;DHT22;6066;48.138;16.402;2023-03-14T02:25:51;5.30;99.90
12015;DHT22;6066;48.138;16.402;2023-03-14T02:28:21;5.30;99.90
12015;DHT22;6066;48.138;16.402;2023-03-14T02:30:48;5.20;99.90
12015;DHT22;6066;48.138;16.402;2023-03-14T02:33:15;5.20;99.90
12015;DHT22;6066;48.138;16.402;2023-03-14T02:35:43;5.10;99.90
12015;DHT22;6066;48.138;16.402;2023-03-14T02:38:13;5.10;99.90
12015;DHT22;6066;48.138;16.402;2023-03-14T02:40:42;5.00;99.90
12015;DHT22;6066;48.138;16.402;2023-03-14T02:43:08;5.00;99.90
12015;DHT22;6066;48.138;16.402;2023-03-14T02:45:38;5.00;99.90
12015;DHT22;6066;48.138;16.402;2023-03-14T02:48:06;5.00;99.90
12015;DHT22;6066;48.138;16.402;2023-03-14T02:50:33;5.00;99.90
12015;DHT22;6066;48.138;16.402;2023-03-14T02:53:00;5.00;99.90
12015;DHT22;6066;48.138;16.402;2023-03-14T02:55:27;5.00;99.90
12015;DHT22;6066;48.138;16.402;2023-03-14T02:57:53;5.00;99.90
12015;DHT22;6066;48.138;16.402;2023-03-14T03:00:20;5.00;99.90
12015;DHT22;6066;48.138;16.402;2023-03-14T03:02:48;5.00;99.90
12015;DHT22;6066;48.138;16.402;2023-03-14T03:05:15;5.00;99.90
12015;DHT22;6066;48.138;16.402;2023-03-14T03:07:42;5.00;99.90
12015;DHT22;6066;48.138;16.402;2023-03-14T03:10:09;5.00;99.90
12015;DHT22;6066;48.138;16.402;2023-03-14T03:12:35;5.10;99.90
12015;DHT22;6066;48.138;16.402;2023-03-14T03:15:02;5.10;99.90
12015;DHT22;6066;48.138;16.402;2023-03-14T03:17:29;5.20;99.90
12015;DHT22;6066;48.138;16.402;2023-03-14T03:19:57;5.30;99.90
12015;DHT22;6066;48.138;16.402;2023-03-14T03:22:24;5.40;99.90
12015;DHT22;6066;48.138;16.402;2023-03-14T03:24:50;5.40;99.90
12015;DHT22;6066;48.138;16.402;2023-03-14T03:27:17;5.50;99.90
12015;DHT22;6066;48.138;16.402;2023-03-14T03:29:44;5.50;99.90
12015;DHT22;6066;48.138;16.402;2023-03-14T03:32:10;5.60;99.90
12015;DHT22;6066;48.138;16.402;2023-03-14T03:34:37;5.60;99.90
12015;DHT22;6066;48.138;16.402;2023-03-14T03:37:05;5.70;99.90
12015;DHT22;6066;48.138;16.402;2023-03-14T03:39:32;5.70;99.90
12015;DHT22;6066;48.138;16.402;2023-03-14T03:41:58;5.70;99.90
12015;DHT22;6066;48.138;16.402;2023-03-14T03:44:25;5.80;99.90
12015;DHT22;6066;48.138;16.402;2023-03-14T03:46:52;5.80;99.90
12015;DHT22;6066;48.138;16.402;2023-03-14T03:49:18;5.90;99.90
12015;DHT22;6066;48.138;16.402;2023-03-14T03:51:45;6.10;99.90
12015;DHT22;6066;48.138;16.402;2023-03-14T03:54:13;6.30;99.90
12015;DHT22;6066;48.138;16.402;2023-03-14T03:56:39;6.50;99.90
12015;DHT22;6066;48.138;16.402;2023-03-14T03:59:06;6.70;99.90
12015;DHT22;6066;48.138;16.402;2023-03-14T04:01:33;6.80;99.90
12015;DHT22;6066;48.138;16.402;2023-03-14T04:03:59;6.80;99.90
12015;DHT22;6066;48.138;16.402;2023-03-14T04:06:26;6.80;99.90
12015;DHT22;6066;48.138;16.402;2023-03-14T04:08:53;6.70;99.90
12015;DHT22;6066;48.138;16.402;2023-03-14T04:11:21;6.60;99.90
12015;DHT22;6066;48.138;16.402;2023-03-14T04:13:48;6.60;99.90
12015;DHT22;6066;48.138;16.402;2023-03-14T04:16:15;6.50;99.90
12015;DHT22;6066;48.138;16.402;2023-03-14T04:18:46;6.40;99.90
12015;DHT22;6066;48.138;16.402;2023-03-14T04:21:13;6.30;99.90
12015;DHT22;6066;48.138;16.402;2023-03-14T04:23:40;6.20;99.90
12015;DHT22;6066;48.138;16.402;2023-03-14T04:26:07;6.10;99.90
12015;DHT22;6066;48.138;16.402;2023-03-14T04:28:35;6.00;99.90
12015;DHT22;6066;48.138;16.402;2023-03-14T04:31:06;5.90;99.90
12015;DHT22;6066;48.138;16.402;2023-03-14T04:33:33;5.90;99.90
12015;DHT22;6066;48.138;16.402;2023-03-14T04:35:59;5.80;99.90
12015;DHT22;6066;48.138;16.402;2023-03-14T04:38:26;5.80;99.90
12015;DHT22;6066;48.138;16.402;2023-03-14T04:40:53;5.80;99.90
12015;DHT22;6066;48.138;16.402;2023-03-14T04:43:19;5.80;99.90
12015;DHT22;6066;48.138;16.402;2023-03-14T04:45:47;5.80;99.90
12015;DHT22;6066;48.138;16.402;2023-03-14T04:48:14;5.80;99.90
12015;DHT22;6066;48.138;16.402;2023-03-14T04:50:41;5.80;99.90
12015;DHT22;6066;48.138;16.402;2023-03-14T04:53:07;5.80;99.90
12015;DHT22;6066;48.138;16.402;2023-03-14T04:55:34;5.90;99.90
12015;DHT22;6066;48.138;16.402;2023-03-14T04:58:01;5.90;99.90
12015;DHT22;6066;48.138;16.402;2023-03-14T05:00:27;6.00;99.90
12015;DHT22;6066;48.138;16.402;2023-03-14T05:02:55;6.00;99.90
12015;DHT22;6066;48.138;16.402;2023-03-14T05:05:22;6.00;99.90
12015;DHT22;6066;48.138;16.402;2023-03-14T05:07:49;6.10;99.90
12015;DHT22;6066;48.138;16.402;2023-03-14T05:10:16;6.10;99.90
12015;DHT22;6066;48.138;16.402;2023-03-14T05:12:42;6.10;99.90
12015;DHT22;6066;48.138;16.402;2023-03-14T05:15:09;6.10;99.90
12015;DHT22;6066;48.138;16.402;2023-03-14T05:17:36;6.10;99.90
12015;DHT22;6066;48.138;16.402;2023-03-14T05:20:04;6.00;99.90
12015;DHT22;6066;48.138;16.402;2023-03-14T05:22:34;6.00;99.90
12015;DHT22;6066;48.138;16.402;2023-03-14T05:25:00;6.10;99.90
12015;DHT22;6066;48.138;16.402;2023-03-14T05:27:27;6.10;99.90
12015;DHT22;6066;48.138;16.402;2023-03-14T05:29:54;6.20;99.90
12015;DHT22;6066;48.138;16.402;2023-03-14T05:32:20;6.30;99.90
12015;DHT22;6066;48.138;16.402;2023-03-14T05:34:47;6.40;99.90
12015;DHT22;6066;48.138;16.402;2023-03-14T05:37:15;6.40;99.90
12015;DHT22;6066;48.138;16.402;2023-03-14T05:39:41;6.50;99.90
12015;DHT22;6066;48.138;16.402;2023-03-14T05:42:08;6.50;99.90
12015;DHT22;6066;48.138;16.402;2023-03-14T05:44:35;6.50;99.90
12015;DHT22;6066;48.138;16.402;2023-03-14T05:47:01;6.50;99.90
12015;DHT22;6066;48.138;16.402;2023-03-14T05:49:28;6.50;99.90
12015;DHT22;6066;48.138;16.402;2023-03-14T05:51:55;6.50;99.90
12015;DHT22;6066;48.138;16.402;2023-03-14T05:54:23;6.60;99.90
12015;DHT22;6066;48.138;16.402;2023-03-14T05:56:49;6.50;99.90
12015;DHT22;6066;48.138;16.402;2023-03-14T05:59:16;6.50;99.90
12015;DHT22;6066;48.138;16.402;2023-03-14T06:01:43;6.60;99.90
12015;DHT22;6066;48.138;16.402;2023-03-14T06:04:09;6.60;99.90
12015;DHT22;6066;48.138;16.402;2023-03-14T06:06:36;6.50;99.90
12015;DHT22;6066;48.138;16.402;2023-03-14T06:09:03;6.50;99.90
12015;DHT22;6066;48.138;16.402;2023-03-14T06:11:31;6.50;99.90
12015;DHT22;6066;48.138;16.402;2023-03-14T06:13:57;6.50;99.90
12015;DHT22;6066;48.138;16.402;2023-03-14T06:16:24;6.50;99.90
12015;DHT22;6066;48.138;16.402;2023-03-14T06:18:51;6.50;99.90
12015;DHT22;6066;48.138;16.402;2023-03-14T06:21:17;6.50;99.90
12015;DHT22;6066;48.138;16.402;2023-03-14T06:23:44;6.50;99.90
12015;DHT22;6066;48.138;16.402;2023-03-14T06:26:11;6.50;99.90
12015;DHT22;6066;48.138;16.402;2023-03-14T06:28:39;6.60;99.90
12015;DHT22;6066;48.138;16.402;2023-03-14T06:31:06;6.60;99.90
12015;DHT22;6066;48.138;16.402;2023-03-14T06:33:32;6.60;99.90
12015;DHT22;6066;48.138;16.402;2023-03-14T06:35:59;6.60;99.90
12015;DHT22;6066;48.138;16.402;2023-03-14T06:38:26;6.70;99.90
12015;DHT22;6066;48.138;16.402;2023-03-14T06:40:52;6.70;99.90
12015;DHT22;6066;48.138;16.402;2023-03-14T06:43:19;6.80;99.90
12015;DHT22;6066;48.138;16.402;2023-03-14T06:45:47;6.90;99.90
12015;DHT22;6066;48.138;16.402;2023-03-14T06:48:14;7.10;99.90
12015;DHT22;6066;48.138;16.402;2023-03-14T06:50:41;7.20;99.90
12015;DHT22;6066;48.138;16.402;2023-03-14T06:53:08;7.30;99.90
12015;DHT22;6066;48.138;16.402;2023-03-14T06:55:34;7.40;99.90
12015;DHT22;6066;48.138;16.402;2023-03-14T06:58:01;7.40;99.90
12015;DHT22;6066;48.138;16.402;2023-03-14T07:00:28;7.40;99.90
12015;DHT22;6066;48.138;16.402;2023-03-14T07:02:56;7.40;99.90
12015;DHT22;6066;48.138;16.402;2023-03-14T07:05:22;7.40;99.90
12015;DHT22;6066;48.138;16.402;2023-03-14T07:07:49;7.40;99.90
12015;DHT22;6066;48.138;16.402;2023-03-14T07:10:16;7.40;99.90
12015;DHT22;6066;48.138;16.402;2023-03-14T07:12:42;7.40;99.90
12015;DHT22;6066;48.138;16.402;2023-03-14T07:15:09;7.60;99.90
12015;DHT22;6066;48.138;16.402;2023-03-14T07:17:36;7.70;99.90
12015;DHT22;6066;48.138;16.402;2023-03-14T07:20:05;7.90;99.90
12015;DHT22;6066;48.138;16.402;2023-03-14T07:22:32;8.00;99.90
12015;DHT22;6066;48.138;16.402;2023-03-14T07:24:59;8.10;99.90
12015;DHT22;6066;48.138;16.402;2023-03-14T07:27:26;8.10;99.90
12015;DHT22;6066;48.138;16.402;2023-03-14T07:29:52;8.20;99.90
12015;DHT22;6066;48.138;16.402;2023-03-14T07:32:19;8.30;99.90
12015;DHT22;6066;48.138;16.402;2023-03-14T07:34:46;8.30;99.90
12015;DHT22;6066;48.138;16.402;2023-03-14T07:37:14;8.40;99.90
12015;DHT22;6066;48.138;16.402;2023-03-14T07:39:40;8.40;99.90
12015;DHT22;6066;48.138;16.402;2023-03-14T07:42:07;8.40;99.90
12015;DHT22;6066;48.138;16.402;2023-03-14T07:44:34;8.40;99.90
12015;DHT22;6066;48.138;16.402;2023-03-14T07:47:00;8.50;99.90
12015;DHT22;6066;48.138;16.402;2023-03-14T07:49:27;8.50;99.90
12015;DHT22;6066;48.138;16.402;2023-03-14T07:51:54;8.70;99.90
12015;DHT22;6066;48.138;16.402;2023-03-14T07:54:22;8.70;99.90
12015;DHT22;6066;48.138;16.402;2023-03-14T07:56:50;8.80;99.90
12015;DHT22;6066;48.138;16.402;2023-03-14T07:59:17;8.90;99.90
12015;DHT22;6066;48.138;16.402;2023-03-14T08:01:43;9.00;99.90
12015;DHT22;6066;48.138;16.402;2023-03-14T08:04:10;9.10;99.90
12015;DHT22;6066;48.138;16.402;2023-03-14T08:06:37;9.10;99.90
12015;DHT22;6066;48.138;16.402;2023-03-14T08:09:03;9.10;99.90
12015;DHT22;6066;48.138;16.402;2023-03-14T08:11:32;9.10;99.90
12015;DHT22;6066;48.138;16.402;2023-03-14T08:13:58;9.00;99.90
12015;DHT22;6066;48.138;16.402;2023-03-14T08:16:25;9.10;99.90
12015;DHT22;6066;48.138;16.402;2023-03-14T08:18:52;9.10;99.90
12015;DHT22;6066;48.138;16.402;2023-03-14T08:21:18;9.10;99.90
12015;DHT22;6066;48.138;16.402;2023-03-14T08:23:45;9.10;99.90
12015;DHT22;6066;48.138;16.402;2023-03-14T08:26:11;9.10;99.90
12015;DHT22;6066;48.138;16.402;2023-03-14T08:28:39;9.10;99.90
12015;DHT22;6066;48.138;16.402;2023-03-14T08:31:06;9.10;99.90
12015;DHT22;6066;48.138;16.402;2023-03-14T08:33:33;9.10;99.90
12015;DHT22;6066;48.138;16.402;2023-03-14T08:36:00;9.10;99.90
12015;DHT22;6066;48.138;16.402;2023-03-14T08:38:26;9.10;99.90
12015;DHT22;6066;48.138;16.402;2023-03-14T08:40:56;9.00;99.90
12015;DHT22;6066;48.138;16.402;2023-03-14T08:43:23;9.00;99.90
12015;DHT22;6066;48.138;16.402;2023-03-14T08:45:52;9.00;99.90
12015;DHT22;6066;48.138;16.402;2023-03-14T08:48:18;8.90;99.90
12015;DHT22;6066;48.138;16.402;2023-03-14T08:50:45;8.90;99.90
12015;DHT22;6066;48.138;16.402;2023-03-14T08:53:12;8.90;99.90
12015;DHT22;6066;48.138;16.402;2023-03-14T08:55:38;8.80;99.90
12015;DHT22;6066;48.138;16.402;2023-03-14T08:58:05;8.90;99.90
12015;DHT22;6066;48.138;16.402;2023-03-14T09:00:31;8.80;99.90
12015;DHT22;6066;48.138;16.402;2023-03-14T09:03:00;8.90;99.90
12015;DHT22;6066;48.138;16.402;2023-03-14T09:05:28;8.90;99.90
12015;DHT22;6066;48.138;16.402;2023-03-14T09:07:58;9.00;99.90
12015;DHT22;6066;48.138;16.402;2023-03-14T09:10:25;9.10;99.90
12015;DHT22;6066;48.138;16.402;2023-03-14T09:12:51;9.10;99.90
12015;DHT22;6066;48.138;16.402;2023-03-14T09:15:18;9.20;99.90
12015;DHT22;6066;48.138;16.402;2023-03-14T09:17:45;9.30;99.90
12015;DHT22;6066;48.138;16.402;2023-03-14T09:20:13;9.30;99.90
12015;DHT22;6066;48.138;16.402;2023-03-14T09:22:39;9.40;99.90
12015;DHT22;6066;48.138;16.402;2023-03-14T09:25:06;9.50;99.90
12015;DHT22;6066;48.138;16.402;2023-03-14T09:27:33;9.50;99.90
12015;DHT22;6066;48.138;16.402;2023-03-14T09:30:00;9.50;99.90
12015;DHT22;6066;48.138;16.402;2023-03-14T09:32:26;9.60;99.90
12015;DHT22;6066;48.138;16.402;2023-03-14T09:34:53;9.60;99.90
12015;DHT22;6066;48.138;16.402;2023-03-14T09:37:21;9.60;99.90
12015;DHT22;6066;48.138;16.402;2023-03-14T09:39:48;9.50;99.90
12015;DHT22;6066;48.138;16.402;2023-03-14T09:42:15;9.50;99.90
12015;DHT22;6066;48.138;16.402;2023-03-14T09:44:46;9.50;99.90
12015;DHT22;6066;48.138;16.402;2023-03-14T09:47:14;9.50;99.90
12015;DHT22;6066;48.138;16.402;2023-03-14T09:49:45;9.40;99.90
12015;DHT22;6066;48.138;16.402;2023-03-14T09:52:14;9.40;99.90
12015;DHT22;6066;48.138;16.402;2023-03-14T09:54:44;9.40;99.90
12015;DHT22;6066;48.138;16.402;2023-03-14T09:57:12;9.50;99.90
12015;DHT22;6066;48.138;16.402;2023-03-14T09:59:40;9.50;99.90
12015;DHT22;6066;48.138;16.402;2023-03-14T10:02:14;9.60;99.90
12015;DHT22;6066;48.138;16.402;2023-03-14T10:04:42;9.60;99.90
12015;DHT22;6066;48.138;16.402;2023-03-14T10:07:11;9.70;99.90
12015;DHT22;6066;48.138;16.402;2023-03-14T10:09:40;9.70;99.90
12015;DHT22;6066;48.138;16.402;2023-03-14T10:12:08;9.80;99.90
12015;DHT22;6066;48.138;16.402;2023-03-14T10:14:35;9.80;99.90
12015;DHT22;6066;48.138;16.402;2023-03-14T10:17:06;9.80;99.90
12015;DHT22;6066;48.138;16.402;2023-03-14T10:19:34;9.80;99.90
12015;DHT22;6066;48.138;16.402;2023-03-14T10:22:01;9.90;99.90
12015;DHT22;6066;48.138;16.402;2023-03-14T10:24:29;10.10;99.90
12015;DHT22;6066;48.138;16.402;2023-03-14T10:26:58;10.30;99.90
12015;DHT22;6066;48.138;16.402;2023-03-14T10:29:28;10.40;99.90
12015;DHT22;6066;48.138;16.402;2023-03-14T10:31:57;10.50;99.90
12015;DHT22;6066;48.138;16.402;2023-03-14T10:34:24;10.50;99.90
12015;DHT22;6066;48.138;16.402;2023-03-14T10:36:52;10.40;99.90
12015;DHT22;6066;48.138;16.402;2023-03-14T10:39:23;10.40;99.90
12015;DHT22;6066;48.138;16.402;2023-03-14T10:41:52;10.30;99.90
12015;DHT22;6066;48.138;16.402;2023-03-14T10:44:20;10.20;99.90
12015;DHT22;6066;48.138;16.402;2023-03-14T10:46:51;10.20;99.90
12015;DHT22;6066;48.138;16.402;2023-03-14T10:49:23;10.10;99.90
12015;DHT22;6066;48.138;16.402;2023-03-14T10:51:51;10.10;99.90
12015;DHT22;6066;48.138;16.402;2023-03-14T10:54:19;10.10;99.90
12015;DHT22;6066;48.138;16.402;2023-03-14T10:56:50;10.10;99.90
12015;DHT22;6066;48.138;16.402;2023-03-14T10:59:22;10.10;99.90
12015;DHT22;6066;48.138;16.402;2023-03-14T11:01:50;10.30;99.90
12015;DHT22;6066;48.138;16.402;2023-03-14T11:04:38;10.50;99.90
12015;DHT22;6066;48.138;16.402;2023-03-14T11:07:08;10.80;99.90
12015;DHT22;6066;48.138;16.402;2023-03-14T11:09:36;11.10;99.90
12015;DHT22;6066;48.138;16.402;2023-03-14T11:12:09;11.30;99.90
12015;DHT22;6066;48.138;16.402;2023-03-14T11:14:40;11.40;99.90
12015;DHT22;6066;48.138;16.402;2023-03-14T11:17:09;11.50;99.90
12015;DHT22;6066;48.138;16.402;2023-03-14T11:19:59;11.50;99.90
12015;DHT22;6066;48.138;16.402;2023-03-14T11:22:32;11.50;99.90
12015;DHT22;6066;48.138;16.402;2023-03-14T11:25:11;11.60;99.90
12015;DHT22;6066;48.138;16.402;2023-03-14T11:27:41;11.60;99.90
12015;DHT22;6066;48.138;16.402;2023-03-14T11:30:16;11.70;99.90
12015;DHT22;6066;48.138;16.402;2023-03-14T11:32:44;11.70;99.90
12015;DHT22;6066;48.138;16.402;2023-03-14T11:35:17;11.70;99.90
12015;DHT22;6066;48.138;16.402;2023-03-14T11:37:47;11.70;99.90
12015;DHT22;6066;48.138;16.402;2023-03-14T11:40:18;11.70;99.90
12015;DHT22;6066;48.138;16.402;2023-03-14T11:42:46;11.80;99.90
12015;DHT22;6066;48.138;16.402;2023-03-14T11:45:15;11.70;99.90
12015;DHT22;6066;48.138;16.402;2023-03-14T11:47:43;11.70;99.90
12015;DHT22;6066;48.138;16.402;2023-03-14T11:50:12;11.70;99.90
12015;DHT22;6066;48.138;16.402;2023-03-14T11:52:45;11.60;99.90
12015;DHT22;6066;48.138;16.402;2023-03-14T11:55:17;11.50;99.90
12015;DHT22;6066;48.138;16.402;2023-03-14T11:57:45;11.50;99.90
12015;DHT22;6066;48.138;16.402;2023-03-14T12:00:14;11.50;99.90
12015;DHT22;6066;48.138;16.402;2023-03-14T12:02:44;11.50;99.90
12015;DHT22;6066;48.138;16.402;2023-03-14T12:08:09;11.50;99.90
12015;DHT22;6066;48.138;16.402;2023-03-14T12:10:43;11.60;99.90
12015;DHT22;6066;48.138;16.402;2023-03-14T12:13:12;11.60;99.90
12015;DHT22;6066;48.138;16.402;2023-03-14T12:15:40;11.50;99.90
12015;DHT22;6066;48.138;16.402;2023-03-14T12:18:14;11.50;99.90
12015;DHT22;6066;48.138;16.402;2023-03-14T12:20:50;11.50;99.90
12015;DHT22;6066;48.138;16.402;2023-03-14T12:23:19;11.50;99.90
12015;DHT22;6066;48.138;16.402;2023-03-14T12:25:45;11.50;99.90
12015;DHT22;6066;48.138;16.402;2023-03-14T12:28:16;11.50;99.90
12015;DHT22;6066;48.138;16.402;2023-03-14T12:30:44;11.50;99.90
12015;DHT22;6066;48.138;16.402;2023-03-14T12:33:12;11.40;99.90
12015;DHT22;6066;48.138;16.402;2023-03-14T12:35:39;11.30;99.90
12015;DHT22;6066;48.138;16.402;2023-03-14T12:38:08;11.30;99.90
12015;DHT22;6066;48.138;16.402;2023-03-14T12:40:38;11.30;99.90
12015;DHT22;6066;48.138;16.402;2023-03-14T12:43:10;11.20;99.90
12015;DHT22;6066;48.138;16.402;2023-03-14T12:48:31;11.00;99.90
12015;DHT22;6066;48.138;16.402;2023-03-14T12:51:00;11.00;99.90
12015;DHT22;6066;48.138;16.402;2023-03-14T12:56:22;11.00;99.90
12015;DHT22;6066;48.138;16.402;2023-03-14T12:58:54;11.10;99.90
12015;DHT22;6066;48.138;16.402;2023-03-14T13:01:26;11.10;99.90
12015;DHT22;6066;48.138;16.402;2023-03-14T13:03:54;11.00;99.90
12015;DHT22;6066;48.138;16.402;2023-03-14T13:12:00;10.90;99.90
12015;DHT22;6066;48.138;16.402;2023-03-14T13:14:28;10.90;99.90
12015;DHT22;6066;48.138;16.402;2023-03-14T13:16:55;10.80;99.90
12015;DHT22;6066;48.138;16.402;2023-03-14T13:19:23;10.80;99.90
12015;DHT22;6066;48.138;16.402;2023-03-14T13:21:51;10.70;99.90
12015;DHT22;6066;48.138;16.402;2023-03-14T13:24:23;10.70;99.90
12015;DHT22;6066;48.138;16.402;2023-03-14T13:26:53;10.70;99.90
12015;DHT22;6066;48.138;16.402;2023-03-14T13:29:21;10.70;99.90
12015;DHT22;6066;48.138;16.402;2023-03-14T13:31:49;10.70;99.90
12015;DHT22;6066;48.138;16.402;2023-03-14T13:34:16;10.70;99.90
12015;DHT22;6066;48.138;16.402;2023-03-14T13:36:43;10.70;99.90
12015;DHT22;6066;48.138;16.402;2023-03-14T13:39:10;10.70;99.90
12015;DHT22;6066;48.138;16.402;2023-03-14T13:41:39;10.60;99.90
12015;DHT22;6066;48.138;16.402;2023-03-14T13:44:06;10.60;99.90
12015;DHT22;6066;48.138;16.402;2023-03-14T13:46:35;10.50;99.90
12015;DHT22;6066;48.138;16.402;2023-03-14T13:49:03;10.60;99.90
12015;DHT22;6066;48.138;16.402;2023-03-14T13:51:30;10.50;99.90
12015;DHT22;6066;48.138;16.402;2023-03-14T13:53:59;10.60;99.90
12015;DHT22;6066;48.138;16.402;2023-03-14T13:56:28;10.50;99.90
12015;DHT22;6066;48.138;16.402;2023-03-14T13:58:55;10.60;99.90
12015;DHT22;6066;48.138;16.402;2023-03-14T14:01:22;10.50;99.90
12015;DHT22;6066;48.138;16.402;2023-03-14T14:03:52;10.50;99.90
12015;DHT22;6066;48.138;16.402;2023-03-14T14:06:22;10.60;99.90
12015;DHT22;6066;48.138;16.402;2023-03-14T14:08:50;10.50;99.90
12015;DHT22;6066;48.138;16.402;2023-03-14T14:11:20;10.50;99.90
12015;DHT22;6066;48.138;16.402;2023-03-14T14:13:48;10.40;99.90
12015;DHT22;6066;48.138;16.402;2023-03-14T14:16:15;10.30;99.90
12015;DHT22;6066;48.138;16.402;2023-03-14T14:18:43;10.30;99.90
12015;DHT22;6066;48.138;16.402;2023-03-14T14:21:11;10.20;99.90
12015;DHT22;6066;48.138;16.402;2023-03-14T14:23:38;10.20;99.90
12015;DHT22;6066;48.138;16.402;2023-03-14T14:26:05;10.20;99.90
12015;DHT22;6066;48.138;16.402;2023-03-14T14:28:32;10.20;99.90
12015;DHT22;6066;48.138;16.402;2023-03-14T14:31:17;10.20;99.90
12015;DHT22;6066;48.138;16.402;2023-03-14T14:33:45;10.20;99.90
12015;DHT22;6066;48.138;16.402;2023-03-14T14:36:16;10.20;99.90
12015;DHT22;6066;48.138;16.402;2023-03-14T14:38:48;10.20;99.90
12015;DHT22;6066;48.138;16.402;2023-03-14T14:41:15;10.10;99.90
12015;DHT22;6066;48.138;16.402;2023-03-14T14:43:43;10.20;99.90
12015;DHT22;6066;48.138;16.402;2023-03-14T14:46:13;10.20;99.90
12015;DHT22;6066;48.138;16.402;2023-03-14T14:48:42;10.20;99.90
12015;DHT22;6066;48.138;16.402;2023-03-14T14:51:10;10.20;99.90
12015;DHT22;6066;48.138;16.402;2023-03-14T14:53:39;10.30;99.90
12015;DHT22;6066;48.138;16.402;2023-03-14T14:56:07;10.20;99.90
12015;DHT22;6066;48.138;16.402;2023-03-14T14:58:34;10.20;99.90
12015;DHT22;6066;48.138;16.402;2023-03-14T15:01:03;10.20;99.90
12015;DHT22;6066;48.138;16.402;2023-03-14T15:03:31;10.20;99.90
12015;DHT22;6066;48.138;16.402;2023-03-14T15:05:58;10.10;99.90
12015;DHT22;6066;48.138;16.402;2023-03-14T15:08:25;10.10;99.90
12015;DHT22;6066;48.138;16.402;2023-03-14T15:10:54;10.00;99.90
12015;DHT22;6066;48.138;16.402;2023-03-14T15:13:21;10.00;99.90
12015;DHT22;6066;48.138;16.402;2023-03-14T15:15:48;10.00;99.90
12015;DHT22;6066;48.138;16.402;2023-03-14T15:18:21;9.90;99.90
12015;DHT22;6066;48.138;16.402;2023-03-14T15:20:48;9.80;99.90
12015;DHT22;6066;48.138;16.402;2023-03-14T15:23:16;9.80;99.90
12015;DHT22;6066;48.138;16.402;2023-03-14T15:25:43;9.70;99.90
12015;DHT22;6066;48.138;16.402;2023-03-14T15:28:15;9.70;99.90
12015;DHT22;6066;48.138;16.402;2023-03-14T15:30:42;9.60;99.90
12015;DHT22;6066;48.138;16.402;2023-03-14T15:33:11;9.60;99.90
12015;DHT22;6066;48.138;16.402;2023-03-14T15:35:37;9.50;99.90
12015;DHT22;6066;48.138;16.402;2023-03-14T15:38:04;9.50;99.90
12015;DHT22;6066;48.138;16.402;2023-03-14T15:40:31;9.50;99.90
12015;DHT22;6066;48.138;16.402;2023-03-14T15:42:58;9.40;99.90
12015;DHT22;6066;48.138;16.402;2023-03-14T15:45:27;9.40;99.90
12015;DHT22;6066;48.138;16.402;2023-03-14T15:47:54;9.40;99.90
12015;DHT22;6066;48.138;16.402;2023-03-14T15:50:20;9.30;99.90
12015;DHT22;6066;48.138;16.402;2023-03-14T15:52:47;9.30;99.90
12015;DHT22;6066;48.138;16.402;2023-03-14T15:55:14;9.20;99.90
12015;DHT22;6066;48.138;16.402;2023-03-14T15:57:41;9.20;99.90
12015;DHT22;6066;48.138;16.402;2023-03-14T16:00:09;9.20;99.90